createdAt,value
2023-01-05T00:00:58.500Z,8.48
2023-01-05T00:01:58.534Z,8.52
2023-01-05T00:02:58.463Z,8.53
2023-01-05T00:03:58.490Z,8.44
2023-01-05T00:04:58.470Z,8.55
2023-01-05T00:05:58.415Z,8.45
2023-01-05T00:06:58.410Z,8.47
2023-01-05T00:07:58.414Z,8.43
2023-01-05T00:08:58.387Z,8.47
2023-01-05T00:09:58.371Z,8.44
2023-01-05T00:10:58.381Z,8.43
2023-01-05T00:11:58.378Z,8.47
2023-01-05T00:12:58.379Z,8.52
2023-01-05T00:13:58.325Z,8.52
2023-01-05T00:14:58.326Z,8.50
2023-01-05T00:15:58.308Z,8.48
2023-01-05T00:16:58.400Z,8.47
2023-01-05T00:17:58.309Z,8.47
2023-01-05T00:18:58.291Z,8.45
2023-01-05T00:19:58.276Z,8.45
2023-01-05T00:20:58.280Z,8.47
2023-01-05T00:21:58.237Z,8.44
2023-01-05T00:22:58.266Z,8.47
2023-01-05T00:23:58.223Z,8.50
2023-01-05T00:24:58.249Z,8.43
2023-01-05T00:25:58.199Z,8.48
2023-01-05T00:26:58.191Z,8.50
2023-01-05T00:27:58.189Z,8.45
2023-01-05T00:28:58.178Z,8.44
2023-01-05T00:29:58.150Z,8.43
2023-01-05T00:30:58.159Z,8.45
2023-01-05T00:31:58.239Z,8.45
2023-01-05T00:32:58.114Z,8.47
2023-01-05T00:33:58.102Z,8.43
2023-01-05T00:34:58.111Z,8.47
2023-01-05T00:35:58.097Z,8.47
2023-01-05T00:36:58.072Z,8.48
2023-01-05T00:37:58.054Z,8.44
2023-01-05T00:38:58.056Z,8.40
2023-01-05T00:39:58.039Z,8.52
2023-01-05T00:40:58.053Z,8.47
2023-01-05T00:41:58.011Z,8.45
2023-01-05T00:42:58.027Z,8.45
2023-01-05T00:43:57.988Z,8.48
2023-01-05T00:44:58.002Z,8.40
2023-01-05T00:45:58.026Z,8.43
2023-01-05T00:46:57.967Z,8.50
2023-01-05T00:47:57.960Z,8.44
2023-01-05T00:48:57.939Z,8.44
2023-01-05T00:49:57.919Z,8.48
2023-01-05T00:50:57.913Z,8.48
2023-01-05T00:51:57.915Z,8.43
2023-01-05T00:52:57.902Z,8.45
2023-01-05T00:53:57.885Z,8.47
2023-01-05T00:54:57.865Z,8.48
2023-01-05T00:55:57.883Z,8.36
2023-01-05T00:56:57.860Z,8.50
2023-01-05T00:57:57.868Z,8.44
2023-01-05T00:58:57.824Z,8.47
2023-01-05T00:59:57.814Z,8.50
2023-01-05T01:00:57.884Z,8.40
2023-01-05T01:01:57.947Z,8.44
2023-01-05T01:02:57.849Z,8.43
2023-01-05T01:03:57.816Z,8.48
2023-01-05T01:04:57.866Z,8.47
2023-01-05T01:05:57.746Z,8.48
2023-01-05T01:06:57.726Z,8.56
2023-01-05T01:07:57.749Z,8.61
2023-01-05T01:08:57.729Z,8.56
2023-01-05T01:09:57.711Z,8.55
2023-01-05T01:10:57.693Z,8.53
2023-01-05T01:11:57.692Z,8.58
2023-01-05T01:12:57.685Z,8.50
2023-01-05T01:13:57.657Z,8.56
2023-01-05T01:14:57.641Z,8.58
2023-01-05T01:15:57.633Z,8.61
2023-01-05T01:16:57.689Z,8.58
2023-01-05T01:17:57.637Z,8.61
2023-01-05T01:19:00.541Z,8.63
2023-01-05T01:19:58.588Z,8.65
2023-01-05T01:20:57.572Z,8.66
2023-01-05T01:21:57.574Z,8.58
2023-01-05T01:22:57.567Z,8.62
2023-01-05T01:23:57.546Z,8.61
2023-01-05T01:24:57.532Z,8.63
2023-01-05T01:25:57.545Z,8.68
2023-01-05T01:26:57.511Z,8.70
2023-01-05T01:27:57.508Z,8.68
2023-01-05T01:28:57.484Z,8.68
2023-01-05T01:29:57.496Z,8.73
2023-01-05T01:30:57.571Z,8.63
2023-01-05T01:31:57.458Z,8.68
2023-01-05T01:32:57.451Z,8.74
2023-01-05T01:33:57.433Z,8.74
2023-01-05T01:34:57.466Z,8.73
2023-01-05T01:35:57.425Z,8.74
2023-01-05T01:36:57.406Z,8.74
2023-01-05T01:37:57.384Z,8.71
2023-01-05T01:38:57.377Z,8.70
2023-01-05T01:39:57.452Z,8.77
2023-01-05T01:40:57.354Z,8.71
2023-01-05T01:41:57.340Z,8.70
2023-01-05T01:42:57.323Z,8.66
2023-01-05T01:43:57.324Z,8.83
2023-01-05T01:44:57.316Z,8.80
2023-01-05T01:45:57.365Z,8.81
2023-01-05T01:46:57.283Z,8.86
2023-01-05T01:47:57.274Z,8.79
2023-01-05T01:48:57.284Z,8.86
2023-01-05T01:49:57.275Z,8.89
2023-01-05T01:50:57.238Z,8.92
2023-01-05T01:51:57.240Z,8.94
2023-01-05T01:52:57.213Z,8.95
2023-01-05T01:53:57.206Z,8.96
2023-01-05T01:54:57.202Z,8.95
2023-01-05T01:55:57.208Z,8.92
2023-01-05T01:56:57.163Z,8.95
2023-01-05T01:57:57.168Z,8.99
2023-01-05T01:58:57.143Z,9.02
2023-01-05T01:59:57.135Z,9.02
2023-01-05T02:00:57.212Z,8.98
2023-01-05T02:01:57.292Z,8.99
2023-01-05T02:02:57.110Z,9.02
2023-01-05T02:03:57.103Z,8.99
2023-01-05T02:04:57.206Z,9.10
2023-01-05T02:05:57.091Z,9.01
2023-01-05T02:06:57.053Z,9.02
2023-01-05T02:07:57.047Z,9.05
2023-01-05T02:08:57.030Z,8.99
2023-01-05T02:09:57.048Z,8.99
2023-01-05T02:10:57.036Z,9.01
2023-01-05T02:11:57.015Z,9.04
2023-01-05T02:12:56.990Z,9.02
2023-01-05T02:13:56.990Z,9.04
2023-01-05T02:14:56.965Z,9.02
2023-01-05T02:15:56.980Z,9.05
2023-01-05T02:16:57.019Z,9.04
2023-01-05T02:17:56.944Z,9.02
2023-01-05T02:18:56.932Z,9.04
2023-01-05T02:19:56.910Z,8.99
2023-01-05T02:20:56.928Z,8.96
2023-01-05T02:21:56.912Z,9.02
2023-01-05T02:22:56.877Z,9.01
2023-01-05T02:23:56.866Z,9.05
2023-01-05T02:24:56.853Z,9.04
2023-01-05T02:25:56.868Z,9.02
2023-01-05T02:26:56.852Z,9.14
2023-01-05T02:27:56.840Z,9.04
2023-01-05T02:28:56.827Z,9.05
2023-01-05T02:29:56.822Z,9.14
2023-01-05T02:30:56.854Z,9.08
2023-01-05T02:31:56.800Z,9.08
2023-01-05T02:32:56.785Z,9.14
2023-01-05T02:33:56.765Z,9.01
2023-01-05T02:34:56.753Z,9.14
2023-01-05T02:35:56.737Z,9.04
2023-01-05T02:36:56.733Z,9.04
2023-01-05T02:37:56.710Z,8.99
2023-01-05T02:38:56.690Z,9.10
2023-01-05T02:39:56.696Z,9.08
2023-01-05T02:40:56.688Z,9.05
2023-01-05T02:41:56.686Z,9.02
2023-01-05T02:42:56.647Z,9.02
2023-01-05T02:43:56.660Z,9.04
2023-01-05T02:44:56.621Z,9.04
2023-01-05T02:45:56.643Z,9.14
2023-01-05T02:46:56.608Z,9.01
2023-01-05T02:47:56.608Z,9.04
2023-01-05T02:48:56.632Z,9.01
2023-01-05T02:49:56.577Z,9.04
2023-01-05T02:50:56.562Z,8.99
2023-01-05T02:51:56.554Z,8.98
2023-01-05T02:52:56.551Z,9.01
2023-01-05T02:53:56.547Z,9.05
2023-01-05T02:54:56.521Z,9.04
2023-01-05T02:55:56.511Z,8.98
2023-01-05T02:56:56.497Z,8.96
2023-01-05T02:57:56.501Z,9.02
2023-01-05T02:58:56.473Z,8.92
2023-01-05T02:59:56.505Z,8.94
2023-01-05T03:00:56.524Z,8.96
2023-01-05T03:01:56.634Z,8.94
2023-01-05T03:02:56.620Z,8.96
2023-01-05T03:03:56.415Z,8.91
2023-01-05T03:04:56.400Z,8.94
2023-01-05T03:05:56.410Z,8.89
2023-01-05T03:06:56.424Z,8.86
2023-01-05T03:07:56.375Z,8.80
2023-01-05T03:08:56.393Z,8.94
2023-01-05T03:09:56.376Z,8.81
2023-01-05T03:10:56.330Z,8.83
2023-01-05T03:11:56.332Z,8.91
2023-01-05T03:12:56.326Z,8.87
2023-01-05T03:13:56.303Z,8.86
2023-01-05T03:14:56.309Z,8.84
2023-01-05T03:15:56.341Z,8.80
2023-01-05T03:16:56.297Z,8.91
2023-01-05T03:17:56.262Z,8.87
2023-01-05T03:18:56.240Z,8.87
2023-01-05T03:19:56.243Z,8.86
2023-01-05T03:20:56.219Z,8.86
2023-01-05T03:21:56.238Z,8.87
2023-01-05T03:22:56.204Z,8.84
2023-01-05T03:23:56.193Z,8.81
2023-01-05T03:24:56.196Z,8.77
2023-01-05T03:25:56.194Z,8.79
2023-01-05T03:26:56.171Z,8.74
2023-01-05T03:27:56.143Z,8.80
2023-01-05T03:28:56.141Z,8.76
2023-01-05T03:29:56.144Z,8.77
2023-01-05T03:30:56.179Z,8.84
2023-01-05T03:31:56.098Z,8.80
2023-01-05T03:32:56.088Z,8.83
2023-01-05T03:33:56.080Z,8.83
2023-01-05T03:34:56.081Z,8.79
2023-01-05T03:35:56.076Z,8.84
2023-01-05T03:36:56.044Z,8.83
2023-01-05T03:37:56.050Z,8.84
2023-01-05T03:38:56.024Z,8.74
2023-01-05T03:39:56.010Z,8.84
2023-01-05T03:40:56.129Z,8.86
2023-01-05T03:41:55.996Z,8.86
2023-01-05T03:42:56.002Z,8.86
2023-01-05T03:43:55.963Z,8.81
2023-01-05T03:44:55.959Z,8.87
2023-01-05T03:45:56.021Z,8.86
2023-01-05T03:46:55.953Z,8.89
2023-01-05T03:47:55.939Z,8.86
2023-01-05T03:48:55.917Z,8.89
2023-01-05T03:49:55.899Z,8.94
2023-01-05T03:50:55.905Z,8.96
2023-01-05T03:51:55.890Z,8.86
2023-01-05T03:52:55.863Z,8.92
2023-01-05T03:53:55.855Z,8.87
2023-01-05T03:54:55.857Z,8.83
2023-01-05T03:55:55.833Z,8.96
2023-01-05T03:56:55.829Z,8.94
2023-01-05T03:57:55.817Z,8.84
2023-01-05T03:58:55.791Z,8.87
2023-01-05T03:59:55.811Z,8.95
2023-01-05T04:00:55.796Z,8.87
2023-01-05T04:01:55.970Z,8.80
2023-01-05T04:02:55.951Z,8.87
2023-01-05T04:03:55.790Z,8.83
2023-01-05T04:04:55.721Z,8.89
2023-01-05T04:05:55.736Z,8.83
2023-01-05T04:06:55.703Z,8.95
2023-01-05T04:07:55.705Z,8.84
2023-01-05T04:08:55.681Z,8.89
2023-01-05T04:09:55.689Z,8.87
2023-01-05T04:10:55.679Z,8.87
2023-01-05T04:11:55.681Z,8.91
2023-01-05T04:12:55.657Z,8.87
2023-01-05T04:13:55.640Z,8.91
2023-01-05T04:14:55.626Z,8.95
2023-01-05T04:15:55.670Z,8.92
2023-01-05T04:16:55.619Z,8.86
2023-01-05T04:17:55.597Z,8.84
2023-01-05T04:18:55.576Z,8.86
2023-01-05T04:19:55.572Z,8.87
2023-01-05T04:20:55.568Z,8.89
2023-01-05T04:21:55.557Z,8.87
2023-01-05T04:22:55.528Z,8.89
2023-01-05T04:23:55.516Z,8.86
2023-01-05T04:24:55.523Z,8.80
2023-01-05T04:25:55.498Z,8.80
2023-01-05T04:26:55.508Z,8.84
2023-01-05T04:27:55.492Z,8.83
2023-01-05T04:28:55.475Z,8.77
2023-01-05T04:29:55.460Z,8.73
2023-01-05T04:30:55.546Z,8.73
2023-01-05T04:31:55.446Z,8.73
2023-01-05T04:32:55.409Z,8.76
2023-01-05T04:33:55.433Z,8.65
2023-01-05T04:34:55.392Z,8.65
2023-01-05T04:35:55.377Z,8.66
2023-01-05T04:36:55.594Z,8.58
2023-01-05T04:37:55.360Z,8.58
2023-01-05T04:38:55.373Z,8.56
2023-01-05T04:39:55.343Z,8.53
2023-01-05T04:40:55.319Z,8.55
2023-01-05T04:41:55.355Z,8.53
2023-01-05T04:42:55.297Z,8.56
2023-01-05T04:43:55.288Z,8.53
2023-01-05T04:44:55.312Z,8.55
2023-01-05T04:45:55.270Z,8.52
2023-01-05T04:46:55.290Z,8.52
2023-01-05T04:47:55.256Z,8.59
2023-01-05T04:48:55.242Z,8.56
2023-01-05T04:49:55.245Z,8.44
2023-01-05T04:50:55.203Z,8.56
2023-01-05T04:51:55.231Z,8.50
2023-01-05T04:52:55.192Z,8.53
2023-01-05T04:53:55.185Z,8.50
2023-01-05T04:54:55.189Z,8.45
2023-01-05T04:55:55.158Z,8.45
2023-01-05T04:56:55.146Z,8.53
2023-01-05T04:57:55.136Z,8.44
2023-01-05T04:58:55.141Z,8.45
2023-01-05T04:59:55.142Z,8.48
2023-01-05T05:00:55.114Z,8.50
2023-01-05T05:01:55.257Z,8.44
2023-01-05T05:02:55.174Z,8.44
2023-01-05T05:03:55.138Z,8.50
2023-01-05T05:04:55.071Z,8.47
2023-01-05T05:05:55.043Z,8.40
2023-01-05T05:06:55.049Z,8.50
2023-01-05T05:07:55.021Z,8.47
2023-01-05T05:08:55.007Z,8.47
2023-01-05T05:09:55.027Z,8.47
2023-01-05T05:10:54.987Z,8.43
2023-01-05T05:11:54.989Z,8.45
2023-01-05T05:12:54.978Z,8.45
2023-01-05T05:13:54.949Z,8.37
2023-01-05T05:14:54.962Z,8.50
2023-01-05T05:15:55.024Z,8.45
2023-01-05T05:16:54.958Z,8.45
2023-01-05T05:17:54.908Z,8.38
2023-01-05T05:18:54.918Z,8.43
2023-01-05T05:19:54.901Z,8.36
2023-01-05T05:20:54.883Z,8.43
2023-01-05T05:21:54.857Z,8.53
2023-01-05T05:22:54.854Z,8.48
2023-01-05T05:23:54.858Z,8.45
2023-01-05T05:24:54.828Z,8.43
2023-01-05T05:25:54.830Z,8.47
2023-01-05T05:26:54.821Z,8.50
2023-01-05T05:27:54.790Z,8.50
2023-01-05T05:28:54.817Z,8.41
2023-01-05T05:29:54.774Z,8.45
2023-01-05T05:30:54.814Z,8.41
2023-01-05T05:31:54.771Z,8.52
2023-01-05T05:32:54.821Z,8.44
2023-01-05T05:33:54.719Z,8.47
2023-01-05T05:34:54.716Z,8.45
2023-01-05T05:35:54.719Z,8.48
2023-01-05T05:36:54.701Z,8.47
2023-01-05T05:37:56.823Z,8.47
2023-01-05T05:38:54.670Z,8.50
2023-01-05T05:39:54.659Z,8.45
2023-01-05T05:40:54.699Z,8.50
2023-01-05T05:41:54.656Z,8.47
2023-01-05T05:42:54.633Z,8.48
2023-01-05T05:43:54.638Z,8.45
2023-01-05T05:44:54.609Z,8.45
2023-01-05T05:45:54.614Z,8.44
2023-01-05T05:46:54.669Z,8.45
2023-01-05T05:47:54.571Z,8.43
2023-01-05T05:48:54.581Z,8.53
2023-01-05T05:49:54.567Z,8.45
2023-01-05T05:50:54.550Z,8.48
2023-01-05T05:51:54.538Z,8.50
2023-01-05T05:52:54.526Z,8.45
2023-01-05T05:53:54.518Z,8.44
2023-01-05T05:54:54.510Z,8.44
2023-01-05T05:55:54.477Z,8.47
2023-01-05T05:56:54.486Z,8.50
2023-01-05T05:57:54.460Z,8.47
2023-01-05T05:59:00.860Z,8.44
2023-01-05T05:59:55.435Z,8.44
2023-01-05T06:00:54.425Z,8.50
2023-01-05T06:01:54.518Z,8.48
2023-01-05T06:02:54.608Z,8.47
2023-01-05T06:03:54.464Z,8.41
2023-01-05T06:04:54.397Z,8.44
2023-01-05T06:05:54.363Z,8.45
2023-01-05T06:06:54.355Z,8.43
2023-01-05T06:07:54.369Z,8.45
2023-01-05T06:08:54.337Z,8.44
2023-01-05T06:09:54.318Z,8.47
2023-01-05T06:10:54.312Z,8.50
2023-01-05T06:11:54.296Z,8.40
2023-01-05T06:12:54.299Z,8.50
2023-01-05T06:13:54.295Z,8.43
2023-01-05T06:14:54.264Z,8.48
2023-01-05T06:15:54.315Z,8.41
2023-01-05T06:16:54.241Z,8.43
2023-01-05T06:17:54.251Z,8.40
2023-01-05T06:18:54.222Z,8.47
2023-01-05T06:19:54.210Z,8.44
2023-01-05T06:21:01.172Z,8.48
2023-01-05T06:21:55.184Z,8.47
2023-01-05T06:22:54.177Z,8.47
2023-01-05T06:23:54.182Z,8.40
2023-01-05T06:24:54.154Z,8.40
2023-01-05T06:25:54.219Z,8.40
2023-01-05T06:27:20.893Z,8.45
2023-01-05T06:28:20.928Z,8.41
2023-01-05T06:29:20.926Z,8.40
2023-01-05T06:30:20.893Z,8.40
2023-01-05T06:31:20.937Z,8.40
2023-01-05T06:32:20.846Z,8.30
2023-01-05T06:33:20.877Z,8.29
2023-01-05T06:34:20.826Z,8.37
2023-01-05T06:35:20.803Z,8.23
2023-01-05T06:36:20.814Z,8.36
2023-01-05T06:37:20.812Z,8.38
2023-01-05T06:38:20.796Z,8.33
2023-01-05T06:39:20.756Z,8.28
2023-01-05T06:40:20.750Z,8.26
2023-01-05T06:41:20.752Z,8.25
2023-01-05T06:42:23.540Z,8.33
2023-01-05T06:43:20.714Z,8.26
2023-01-05T06:44:20.704Z,8.29
2023-01-05T06:45:20.695Z,8.22
2023-01-05T06:46:20.745Z,8.26
2023-01-05T06:47:20.683Z,8.28
2023-01-05T06:48:20.675Z,8.20
2023-01-05T06:49:20.641Z,8.29
2023-01-05T06:50:20.652Z,8.28
2023-01-05T06:51:20.613Z,8.28
2023-01-05T06:52:20.638Z,8.23
2023-01-05T06:53:20.609Z,8.22
2023-01-05T06:54:20.599Z,8.29
2023-01-05T06:55:20.586Z,8.20
2023-01-05T06:56:20.566Z,8.15
2023-01-05T06:57:20.555Z,8.10
2023-01-05T06:58:20.561Z,8.15
2023-01-05T06:59:20.537Z,8.18
2023-01-05T07:00:20.525Z,8.11
2023-01-05T07:01:20.728Z,8.04
2023-01-05T07:02:20.565Z,8.08
2023-01-05T07:03:20.516Z,8.10
2023-01-05T07:04:20.494Z,8.12
2023-01-05T07:05:20.457Z,8.07
2023-01-05T07:06:20.470Z,8.07
2023-01-05T07:07:20.431Z,8.05
2023-01-05T07:08:20.572Z,8.04
2023-01-05T07:09:20.411Z,7.97
2023-01-05T07:10:20.404Z,7.92
2023-01-05T07:11:20.432Z,7.98
2023-01-05T07:12:20.379Z,7.92
2023-01-05T07:13:20.361Z,7.98
2023-01-05T07:14:20.365Z,7.92
2023-01-05T07:15:20.364Z,7.98
2023-01-05T07:16:20.405Z,7.97
2023-01-05T07:17:20.318Z,7.98
2023-01-05T07:18:20.317Z,8.01
2023-01-05T07:19:20.325Z,7.98
2023-01-05T07:20:20.309Z,7.97
2023-01-05T07:21:20.302Z,7.90
2023-01-05T07:22:20.265Z,7.93
2023-01-05T07:23:20.271Z,7.97
2023-01-05T07:24:20.275Z,7.93
2023-01-05T07:25:20.232Z,7.87
2023-01-05T07:26:20.233Z,7.92
2023-01-05T07:27:20.228Z,7.90
2023-01-05T07:28:20.206Z,7.93
2023-01-05T07:29:20.243Z,8.00
2023-01-05T07:30:20.165Z,8.00
2023-01-05T07:31:20.224Z,7.93
2023-01-05T07:32:20.182Z,7.90
2023-01-05T07:33:20.155Z,7.87
2023-01-05T07:34:20.119Z,7.89
2023-01-05T07:35:20.139Z,7.89
2023-01-05T07:36:20.099Z,7.92
2023-01-05T07:37:20.113Z,7.89
2023-01-05T07:38:20.107Z,7.92
2023-01-05T07:39:20.073Z,7.89
2023-01-05T07:40:20.065Z,7.83
2023-01-05T07:41:20.047Z,7.90
2023-01-05T07:42:20.047Z,7.87
2023-01-05T07:43:20.038Z,7.89
2023-01-05T07:44:20.023Z,8.00
2023-01-05T07:45:20.008Z,7.97
2023-01-05T07:46:20.052Z,7.92
2023-01-05T07:47:20.039Z,7.89
2023-01-05T07:48:23.518Z,7.92
2023-01-05T07:49:19.950Z,7.95
2023-01-05T07:50:19.953Z,7.89
2023-01-05T07:51:19.960Z,7.90
2023-01-05T07:52:19.911Z,7.93
2023-01-05T07:53:19.903Z,7.89
2023-01-05T07:54:19.913Z,7.97
2023-01-05T07:55:19.898Z,7.89
2023-01-05T07:56:19.951Z,7.97
2023-01-05T07:57:19.869Z,7.92
2023-01-05T07:58:19.850Z,8.01
2023-01-05T07:59:19.841Z,7.98
2023-01-05T08:00:19.845Z,7.98
2023-01-05T08:01:19.948Z,7.98
2023-01-05T08:02:19.932Z,7.98
2023-01-05T08:03:19.808Z,8.01
2023-01-05T08:04:19.821Z,7.90
2023-01-05T08:05:19.765Z,8.02
2023-01-05T08:06:19.749Z,7.97
2023-01-05T08:07:19.798Z,7.97
2023-01-05T08:08:24.332Z,7.98
2023-01-05T08:09:20.743Z,7.93
2023-01-05T08:10:19.735Z,7.93
2023-01-05T08:11:19.704Z,8.01
2023-01-05T08:12:19.716Z,8.00
2023-01-05T08:13:19.671Z,7.97
2023-01-05T08:14:19.677Z,7.90
2023-01-05T08:15:19.659Z,7.97
2023-01-05T08:16:19.656Z,8.11
2023-01-05T08:17:19.630Z,8.07
2023-01-05T08:18:19.659Z,8.11
2023-01-05T08:19:19.612Z,8.05
2023-01-05T08:20:19.646Z,8.11
2023-01-05T08:21:19.579Z,8.04
2023-01-05T08:22:19.568Z,8.10
2023-01-05T08:23:25.745Z,8.15
2023-01-05T08:24:20.549Z,8.15
2023-01-05T08:25:19.553Z,8.05
2023-01-05T08:26:19.593Z,8.08
2023-01-05T08:27:19.550Z,8.11
2023-01-05T08:28:19.513Z,8.10
2023-01-05T08:29:19.500Z,8.11
2023-01-05T08:30:19.483Z,8.01
2023-01-05T08:31:19.539Z,8.04
2023-01-05T08:32:19.442Z,8.07
2023-01-05T08:33:19.448Z,8.10
2023-01-05T08:34:19.453Z,8.12
2023-01-05T08:35:19.429Z,8.10
2023-01-05T08:36:19.411Z,8.08
2023-01-05T08:37:19.428Z,8.08
2023-01-05T08:38:19.385Z,8.11
2023-01-05T08:39:19.395Z,8.11
2023-01-05T08:40:19.380Z,8.07
2023-01-05T08:41:19.347Z,8.10
2023-01-05T08:42:19.334Z,8.02
2023-01-05T08:43:19.330Z,8.10
2023-01-05T08:44:19.330Z,8.11
2023-01-05T08:45:19.316Z,8.12
2023-01-05T08:46:19.372Z,8.12
2023-01-05T08:47:20.114Z,8.18
2023-01-05T08:48:19.271Z,8.18
2023-01-05T08:49:19.255Z,8.18
2023-01-05T08:50:19.271Z,8.18
2023-01-05T08:51:19.245Z,8.12
2023-01-05T08:52:19.245Z,8.16
2023-01-05T08:53:19.235Z,8.08
2023-01-05T08:54:19.224Z,8.10
2023-01-05T08:55:19.189Z,8.12
2023-01-05T08:56:19.179Z,8.25
2023-01-05T08:57:19.198Z,8.26
2023-01-05T08:58:19.145Z,8.28
2023-01-05T08:59:19.147Z,8.25
2023-01-05T09:00:19.161Z,8.23
2023-01-05T09:01:19.314Z,8.23
2023-01-05T09:02:25.537Z,8.28
2023-01-05T09:03:20.145Z,8.22
2023-01-05T09:04:19.079Z,8.26
2023-01-05T09:05:19.071Z,8.29
2023-01-05T09:06:19.074Z,8.19
2023-01-05T09:07:19.051Z,8.22
2023-01-05T09:08:19.057Z,8.16
2023-01-05T09:09:19.033Z,8.25
2023-01-05T09:10:19.013Z,8.10
2023-01-05T09:11:19.019Z,8.16
2023-01-05T09:12:18.987Z,8.15
2023-01-05T09:13:18.980Z,8.12
2023-01-05T09:14:19.018Z,8.12
2023-01-05T09:15:18.952Z,8.12
2023-01-05T09:16:42.320Z,8.11
2023-01-05T09:17:20.008Z,8.15
2023-01-05T09:18:18.937Z,8.12
2023-01-05T09:19:18.912Z,8.12
2023-01-05T09:20:18.890Z,8.11
2023-01-05T09:21:18.903Z,8.19
2023-01-05T09:22:18.891Z,8.15
2023-01-05T09:23:18.879Z,8.15
2023-01-05T09:24:18.851Z,8.15
2023-01-05T09:25:18.839Z,8.12
2023-01-05T09:26:18.819Z,8.16
2023-01-05T09:27:18.834Z,8.16
2023-01-05T09:28:18.820Z,8.15
2023-01-05T09:29:18.813Z,8.19
2023-01-05T09:30:18.790Z,8.19
2023-01-05T09:31:18.812Z,8.19
2023-01-05T09:32:19.212Z,8.18
2023-01-05T09:33:18.802Z,8.19
2023-01-05T09:34:18.781Z,8.10
2023-01-05T09:35:18.744Z,8.19
2023-01-05T09:36:19.232Z,8.19
2023-01-05T09:37:18.708Z,8.10
2023-01-05T09:38:18.680Z,8.16
2023-01-05T09:39:18.675Z,8.15
2023-01-05T09:40:18.699Z,8.20
2023-01-05T09:41:18.656Z,8.12
2023-01-05T09:42:18.645Z,8.16
2023-01-05T09:43:18.677Z,8.16
2023-01-05T09:44:18.627Z,8.15
2023-01-05T09:45:18.614Z,8.10
2023-01-05T09:46:18.731Z,8.08
2023-01-05T09:47:18.593Z,8.10
2023-01-05T09:48:18.692Z,8.05
2023-01-05T09:49:18.561Z,8.04
2023-01-05T09:50:18.558Z,8.05
2023-01-05T09:51:18.604Z,8.00
2023-01-05T09:52:18.522Z,8.05
2023-01-05T09:53:18.581Z,7.98
2023-01-05T09:54:18.502Z,7.93
2023-01-05T09:55:18.545Z,8.05
2023-01-05T09:56:42.047Z,7.98
2023-01-05T09:57:19.468Z,8.01
2023-01-05T09:58:18.475Z,8.00
2023-01-05T09:59:18.464Z,7.89
2023-01-05T10:00:18.464Z,7.89
2023-01-05T10:01:18.469Z,7.86
2023-01-05T10:02:18.412Z,7.83
2023-01-05T10:03:37.011Z,7.86
2023-01-05T10:04:22.782Z,7.82
2023-01-05T10:05:19.547Z,7.98
2023-01-05T10:06:18.388Z,7.90
2023-01-05T10:07:18.366Z,7.87
2023-01-05T10:08:18.347Z,7.86
2023-01-05T10:09:18.332Z,7.87
2023-01-05T10:10:18.335Z,7.93
2023-01-05T10:11:18.309Z,8.00
2023-01-05T10:12:18.291Z,7.97
2023-01-05T10:13:18.296Z,7.90
2023-01-05T10:14:18.281Z,7.92
2023-01-05T10:15:18.294Z,7.98
2023-01-05T10:16:18.363Z,7.87
2023-01-05T10:17:43.179Z,7.87
2023-01-05T10:18:19.236Z,7.83
2023-01-05T10:19:18.221Z,7.89
2023-01-05T10:20:18.343Z,7.87
2023-01-05T10:21:18.199Z,7.85
2023-01-05T10:22:18.176Z,8.00
2023-01-05T10:23:18.176Z,7.90
2023-01-05T10:24:18.158Z,7.90
2023-01-05T10:25:18.146Z,7.95
2023-01-05T10:26:18.167Z,7.87
2023-01-05T10:27:26.421Z,8.00
2023-01-05T10:28:19.132Z,7.93
2023-01-05T10:29:18.129Z,7.97
2023-01-05T10:30:18.154Z,7.98
2023-01-05T10:31:18.151Z,8.01
2023-01-05T10:32:18.068Z,7.93
2023-01-05T10:33:40.455Z,7.95
2023-01-05T10:34:19.059Z,7.92
2023-01-05T10:35:41.694Z,7.98
2023-01-05T10:36:23.772Z,7.98
2023-01-05T10:37:19.033Z,8.02
2023-01-05T10:38:17.997Z,8.00
2023-01-05T10:39:17.985Z,8.02
2023-01-05T10:40:18.088Z,7.98
2023-01-05T10:41:17.965Z,8.00
2023-01-05T10:42:17.986Z,7.95
2023-01-05T10:43:17.946Z,7.97
2023-01-05T10:44:17.930Z,7.95
2023-01-05T10:45:17.916Z,7.97
2023-01-05T10:46:40.290Z,7.92
2023-01-05T10:47:18.955Z,7.95
2023-01-05T10:48:17.912Z,8.00
2023-01-05T10:49:17.878Z,7.90
2023-01-05T10:50:17.956Z,8.01
2023-01-05T10:51:17.852Z,7.97
2023-01-05T10:52:17.992Z,7.97
2023-01-05T10:53:17.846Z,7.93
2023-01-05T10:54:17.847Z,7.93
2023-01-05T10:55:17.813Z,7.98
2023-01-05T10:56:17.789Z,7.98
2023-01-05T10:57:17.802Z,7.93
2023-01-05T10:58:17.787Z,7.87
2023-01-05T10:59:17.794Z,7.89
2023-01-05T11:00:18.023Z,7.93
2023-01-05T11:01:17.882Z,7.92
2023-01-05T11:02:17.819Z,7.92
2023-01-05T11:03:17.726Z,7.90
2023-01-05T11:04:35.455Z,7.92
2023-01-05T11:05:18.806Z,7.93
2023-01-05T11:06:17.671Z,7.92
2023-01-05T11:07:17.662Z,7.87
2023-01-05T11:08:17.800Z,7.97
2023-01-05T11:09:22.009Z,7.95
2023-01-05T11:10:17.626Z,7.97
2023-01-05T11:11:17.616Z,7.93
2023-01-05T11:12:17.617Z,7.95
2023-01-05T11:13:17.616Z,7.89
2023-01-05T11:14:17.580Z,7.92
2023-01-05T11:15:17.572Z,7.90
2023-01-05T11:16:17.615Z,8.01
2023-01-05T11:17:17.569Z,7.98
2023-01-05T11:18:17.552Z,7.95
2023-01-05T11:19:17.523Z,8.00
2023-01-05T11:20:17.525Z,7.98
2023-01-05T11:21:17.512Z,8.01
2023-01-05T11:22:17.486Z,7.95
2023-01-05T11:23:17.498Z,7.98
2023-01-05T11:24:17.583Z,7.98
2023-01-05T11:25:17.461Z,7.97
2023-01-05T11:26:17.439Z,8.01
2023-01-05T11:27:17.435Z,7.97
2023-01-05T11:28:17.449Z,7.95
2023-01-05T11:29:17.475Z,7.98
2023-01-05T11:30:17.404Z,8.00
2023-01-05T11:31:17.457Z,8.05
2023-01-05T11:32:17.385Z,7.95
2023-01-05T11:33:24.645Z,7.95
2023-01-05T11:34:18.371Z,7.97
2023-01-05T11:35:17.340Z,8.07
2023-01-05T11:36:17.338Z,7.93
2023-01-05T11:37:17.311Z,8.00
2023-01-05T11:38:17.335Z,8.04
2023-01-05T11:39:17.283Z,7.98
2023-01-05T11:40:17.314Z,7.95
2023-01-05T11:41:17.289Z,8.00
2023-01-05T11:42:21.771Z,7.95
2023-01-05T11:43:18.256Z,7.98
2023-01-05T11:44:17.259Z,7.93
2023-01-05T11:45:17.232Z,7.95
2023-01-05T11:46:17.280Z,7.97
2023-01-05T11:47:17.198Z,7.98
2023-01-05T11:48:17.188Z,7.98
2023-01-05T11:49:17.204Z,7.97
2023-01-05T11:50:17.175Z,8.01
2023-01-05T11:51:18.839Z,7.98
2023-01-05T11:52:17.154Z,8.02
2023-01-05T11:53:17.131Z,8.00
2023-01-05T11:54:17.143Z,7.98
2023-01-05T11:55:17.106Z,8.11
2023-01-05T11:56:17.212Z,8.00
2023-01-05T11:57:17.122Z,7.98
2023-01-05T11:58:17.071Z,7.95
2023-01-05T11:59:17.090Z,7.98
2023-01-05T12:00:17.081Z,7.97
2023-01-05T12:01:17.068Z,7.89
2023-01-05T12:02:17.101Z,7.86
2023-01-05T12:03:17.023Z,7.86
2023-01-05T12:04:17.025Z,7.82
2023-01-05T12:05:16.994Z,7.85
2023-01-05T12:06:16.981Z,7.87
2023-01-05T12:07:16.996Z,7.80
2023-01-05T12:08:16.967Z,7.79
2023-01-05T12:09:17.007Z,7.83
2023-01-05T12:10:16.958Z,7.79
2023-01-05T12:11:16.925Z,7.86
2023-01-05T12:12:17.048Z,7.72
2023-01-05T12:13:16.893Z,7.77
2023-01-05T12:14:16.892Z,7.69
2023-01-05T12:15:16.901Z,7.72
2023-01-05T12:16:16.917Z,7.68
2023-01-05T12:17:16.863Z,7.71
2023-01-05T12:18:16.851Z,7.80
2023-01-05T12:19:16.832Z,7.67
2023-01-05T12:20:16.822Z,7.68
2023-01-05T12:21:16.847Z,7.64
2023-01-05T12:22:16.798Z,7.52
2023-01-05T12:23:16.778Z,7.55
2023-01-05T12:24:16.772Z,7.60
2023-01-05T12:25:16.773Z,7.60
2023-01-05T12:26:16.770Z,7.67
2023-01-05T12:27:16.734Z,7.67
2023-01-05T12:28:29.332Z,7.68
2023-01-05T12:34:17.681Z,7.83
2023-01-05T12:35:16.653Z,7.80
2023-01-05T12:36:16.632Z,7.82
2023-01-05T12:37:16.652Z,7.69
2023-01-05T12:38:16.621Z,7.67
2023-01-05T12:39:16.609Z,7.83
2023-01-05T12:40:16.604Z,7.85
2023-01-05T12:41:16.582Z,7.80
2023-01-05T12:42:16.577Z,7.83
2023-01-05T12:43:16.573Z,7.80
2023-01-05T12:44:16.658Z,7.72
2023-01-05T12:45:16.526Z,7.71
2023-01-05T12:46:16.628Z,7.72
2023-01-05T12:47:16.501Z,7.83
2023-01-05T12:48:16.605Z,7.67
2023-01-05T12:49:16.513Z,7.67
2023-01-05T12:50:16.475Z,7.79
2023-01-05T12:51:16.491Z,7.79
2023-01-05T12:52:16.450Z,7.83
2023-01-05T12:53:16.433Z,7.77
2023-01-05T12:54:16.449Z,7.83
2023-01-05T12:55:16.439Z,7.79
2023-01-05T12:56:16.403Z,7.79
2023-01-05T12:57:16.401Z,7.71
2023-01-05T12:58:16.435Z,7.74
2023-01-05T12:59:16.365Z,7.77
2023-01-05T13:00:16.501Z,7.85
2023-01-05T13:01:16.462Z,7.69
2023-01-05T13:02:16.505Z,7.77
2023-01-05T13:03:16.329Z,7.85
2023-01-05T13:04:16.336Z,7.77
2023-01-05T13:05:16.295Z,7.82
2023-01-05T13:06:16.291Z,7.79
2023-01-05T13:07:16.273Z,7.80
2023-01-05T13:08:16.489Z,7.79
2023-01-05T13:09:16.269Z,7.75
2023-01-05T13:10:16.243Z,7.86
2023-01-05T13:11:16.234Z,7.86
2023-01-05T13:12:16.241Z,7.85
2023-01-05T13:13:16.200Z,7.83
2023-01-05T13:14:16.225Z,7.86
2023-01-05T13:15:16.226Z,7.87
2023-01-05T13:16:16.366Z,7.77
2023-01-05T13:17:16.160Z,7.79
2023-01-05T13:18:16.250Z,7.87
2023-01-05T13:19:16.132Z,7.79
2023-01-05T13:20:16.153Z,7.86
2023-01-05T13:21:16.114Z,7.85
2023-01-05T13:22:16.101Z,7.85
2023-01-05T13:23:16.122Z,7.80
2023-01-05T13:24:16.095Z,7.86